Time;durP1;ratioP1;P1;durP2;ratioP2;P2;SDS_P1;SDS_P2;PMS_P1;PMS_P2;Temp;Humidity;BMP_temperature;BMP_pressure;BME280_temperature;BME280_humidity;BME280_pressure;Samples;Min_cycle;Max_cycle;Signal;HPM_P1;HPM_P2
2021/04/28 00:00:16;;;;;;;23.98;12.98;;;;;;;0.02;68.72;99707.89;1731621;83;21200;-61
2021/04/28 00:02:43;;;;;;;23.62;12.73;;;;;;;-0.02;68.78;99708.81;1727133;83;21286;-62
2021/04/28 00:05:12;;;;;;;26.25;12.28;;;;;;;-0.05;68.77;99704.38;1730351;81;21635;-61
2021/04/28 00:07:40;;;;;;;22.60;12.37;;;;;;;-0.07;68.75;99705.08;1741391;82;21185;-62
2021/04/28 00:10:11;;;;;;;24.55;12.00;;;;;;;-0.08;68.88;99702.12;1723218;82;21325;-61
2021/04/28 00:12:39;;;;;;;23.65;12.68;;;;;;;-0.08;68.99;99713.65;1730812;83;21182;-62
2021/04/28 00:15:12;;;;;;;23.85;11.80;;;;;;;-0.09;68.81;99705.30;1714787;83;21589;-61
2021/04/28 00:17:40;;;;;;;24.57;12.75;;;;;;;-0.12;68.79;99712.41;1727165;83;21588;-61
2021/04/28 00:20:10;;;;;;;20.72;11.88;;;;;;;-0.28;69.25;99693.21;1731146;83;21307;-61
2021/04/28 00:22:37;;;;;;;25.75;12.85;;;;;;;-0.23;69.72;99714.84;1732822;81;21532;-62
2021/04/28 00:25:06;;;;;;;24.50;13.20;;;;;;;-0.29;69.97;99715.16;1728176;82;21194;-61
2021/04/28 00:27:34;;;;;;;26.42;12.65;;;;;;;-0.33;70.21;99713.91;1717170;81;21149;-61
2021/04/28 00:30:06;;;;;;;22.87;11.90;;;;;;;-0.36;70.31;99716.16;1724314;83;21391;-61
2021/04/28 00:32:34;;;;;;;23.25;12.18;;;;;;;-0.38;70.41;99716.86;1703957;81;21596;-62
2021/04/28 00:35:04;;;;;;;23.70;12.07;;;;;;;-0.41;70.33;99713.25;1729986;83;21335;-62
2021/04/28 00:37:32;;;;;;;25.12;13.10;;;;;;;-0.42;70.23;99722.29;1731475;83;21154;-62
2021/04/28 00:39:59;;;;;;;28.47;13.05;;;;;;;-0.44;70.30;99717.16;1722900;83;21346;-62
2021/04/28 00:42:26;;;;;;;23.22;12.58;;;;;;;-0.49;70.96;99719.60;1723886;82;21560;-63
2021/04/28 00:44:54;;;;;;;21.95;11.83;;;;;;;-0.54;71.13;99722.07;1718794;83;21178;-62
2021/04/28 00:47:21;;;;;;;24.72;11.60;;;;;;;-0.60;71.41;99723.67;1729392;83;21713;-62
2021/04/28 00:49:49;;;;;;;23.73;12.20;;;;;;;-0.67;71.54;99726.84;1730302;83;21185;-62
2021/04/28 00:52:17;;;;;;;24.72;11.57;;;;;;;-0.72;71.67;99726.63;1727090;83;21154;-62
2021/04/28 00:54:45;;;;;;;22.62;11.63;;;;;;;-0.93;71.94;99694.67;1729103;83;21257;-62
2021/04/28 00:57:12;;;;;;;21.55;11.48;;;;;;;-0.76;72.22;99725.38;1730749;82;21152;-62
2021/04/28 00:59:40;;;;;;;22.42;11.65;;;;;;;-0.79;72.49;99723.61;1723362;82;21632;-62
2021/04/28 01:02:07;;;;;;;22.35;11.70;;;;;;;-0.80;72.53;99721.45;1731576;83;21296;-62
2021/04/28 01:04:37;;;;;;;21.10;10.90;;;;;;;-0.78;72.62;99728.73;1732984;83;21178;-62
2021/04/28 01:07:05;;;;;;;20.32;10.30;;;;;;;-0.77;72.43;99725.56;1712492;83;21172;-62
2021/04/28 01:09:35;;;;;;;17.60;9.73;;;;;;;-0.76;72.38;99725.88;1707560;84;21234;-61
2021/04/28 01:12:04;;;;;;;22.42;10.00;;;;;;;-0.76;72.54;99725.38;1703491;84;21266;-61
2021/04/28 01:14:33;;;;;;;21.62;11.08;;;;;;;-0.74;72.45;99723.31;1706033;84;21188;-61
2021/04/28 01:17:03;;;;;;;21.23;11.53;;;;;;;-0.76;72.13;99720.03;1702548;84;21567;-61
2021/04/28 01:19:36;;;;;;;20.12;11.53;;;;;;;-0.76;72.04;99728.55;1685371;84;21248;-61
2021/04/28 01:22:05;;;;;;;20.55;11.48;;;;;;;-0.81;71.92;99722.45;1693688;84;21147;-61
2021/04/28 01:24:33;;;;;;;21.33;10.88;;;;;;;-0.81;71.70;99729.14;1700286;84;21322;-61
2021/04/28 01:27:12;;;;;;;22.32;11.33;;;;;;;-0.82;71.52;99720.83;1673810;84;21195;-60
2021/04/28 01:29:42;;;;;;;21.68;11.05;;;;;;;-0.83;71.42;99723.69;1704818;84;21164;-61
2021/04/28 01:32:12;;;;;;;22.07;11.18;;;;;;;-0.85;71.42;99721.74;1704948;83;21288;-62
2021/04/28 01:34:40;;;;;;;22.98;12.05;;;;;;;-0.87;71.42;99719.25;1730372;83;21132;-62
2021/04/28 01:37:08;;;;;;;24.72;13.50;;;;;;;-0.89;71.43;99721.31;1726619;83;21288;-61
2021/04/28 01:39:36;;;;;;;22.95;12.13;;;;;;;-0.89;71.44;99727.99;1700794;83;21639;-62
2021/04/28 01:42:04;;;;;;;26.10;12.25;;;;;;;-0.91;71.58;99725.19;1703301;84;21302;-62
2021/04/28 01:44:32;;;;;;;20.45;11.73;;;;;;;-0.94;71.81;99720.24;1656755;84;21258;-62
2021/04/28 01:47:00;;;;;;;22.95;12.40;;;;;;;-0.96;72.02;99724.97;1697904;84;21172;-62
2021/04/28 01:49:28;;;;;;;20.75;11.97;;;;;;;-1.00;72.08;99723.20;1724993;82;21247;-62
2021/04/28 01:51:56;;;;;;;20.10;11.78;;;;;;;-1.00;72.09;99725.88;1716109;83;21747;-62
2021/04/28 01:54:25;;;;;;;19.92;11.22;;;;;;;-1.03;72.11;99728.41;1707045;84;21176;-62
2021/04/28 01:56:52;;;;;;;23.40;10.93;;;;;;;-1.03;72.07;99734.30;1707558;84;21591;-62
2021/04/28 01:59:22;;;;;;;19.45;10.88;;;;;;;-1.03;72.12;99731.63;1732142;81;21172;-62
2021/04/28 02:04:30;;;;;;;21.07;11.43;;;;;;;-1.03;72.25;99725.74;1762945;79;22975;-61
2021/04/28 02:06:58;;;;;;;19.80;10.98;;;;;;;-1.12;72.75;99733.61;1707453;83;21145;-60
2021/04/28 02:09:27;;;;;;;21.17;10.95;;;;;;;-1.10;72.67;99725.41;1694664;83;21157;-61
2021/04/28 02:11:56;;;;;;;22.65;10.50;;;;;;;-1.11;72.47;99725.92;1720565;83;21287;-60
2021/04/28 02:14:25;;;;;;;21.25;10.85;;;;;;;-1.10;72.24;99729.42;1695575;83;21173;-63
2021/04/28 02:17:01;;;;;;;17.85;8.78;;;;;;;-1.10;72.17;99721.41;1809840;77;22469;-61
2021/04/28 02:19:31;;;;;;;18.55;8.98;;;;;;;-1.16;72.14;99724.34;1807558;78;21780;-61
2021/04/28 02:21:59;;;;;;;21.70;9.05;;;;;;;-1.18;72.14;99730.91;1767286;80;21144;-61
2021/04/28 02:24:36;;;;;;;17.42;9.23;;;;;;;-1.19;72.15;99724.73;1795386;79;22846;-61
2021/04/28 02:27:04;;;;;;;19.17;9.78;;;;;;;-1.22;72.32;99724.30;1756776;81;21318;-61
2021/04/28 02:29:34;;;;;;;17.80;9.33;;;;;;;-1.18;72.72;99728.23;1760948;80;21534;-61
2021/04/28 02:32:04;;;;;;;15.98;8.60;;;;;;;-1.16;72.78;99727.52;1781682;80;21584;-61
2021/04/28 02:34:40;;;;;;;18.25;9.28;;;;;;;-1.12;72.65;99728.78;1778498;79;23120;-60
2021/04/28 02:37:27;;;;;;;15.58;8.78;;;;;;;-1.17;72.39;99734.70;1786972;79;21163;-60
2021/04/28 02:40:14;;;;;;;17.33;9.53;;;;;;;-1.19;72.17;99730.58;1809088;79;21812;-61
2021/04/28 02:42:44;;;;;;;15.88;9.05;;;;;;;-1.23;72.05;99730.16;1795745;79;21306;-61
2021/04/28 02:45:15;;;;;;;17.30;9.03;;;;;;;-1.23;72.25;99737.34;1819626;78;21487;-61
2021/04/28 02:47:44;;;;;;;16.00;9.93;;;;;;;-1.22;72.55;99740.33;1769318;79;21306;-61
2021/04/28 02:50:14;;;;;;;16.32;9.45;;;;;;;-1.18;72.84;99734.91;1770722;79;21294;-61
2021/04/28 02:52:53;;;;;;;20.45;9.63;;;;;;;-1.11;72.74;99729.09;1770601;79;22969;-61
2021/04/28 02:55:21;;;;;;;16.57;8.90;;;;;;;-1.14;72.60;99731.66;1713378;82;21196;-61
2021/04/28 02:57:51;;;;;;;19.75;9.83;;;;;;;-1.11;72.33;99735.78;1672955;83;21165;-61
2021/04/28 03:00:21;;;;;;;16.20;9.05;;;;;;;-1.14;72.10;99737.00;1688917;83;21174;-60
2021/04/28 03:02:50;;;;;;;18.00;9.13;;;;;;;-1.15;71.90;99738.02;1701480;83;21295;-61
2021/04/28 03:05:19;;;;;;;19.25;9.43;;;;;;;-1.18;71.98;99738.92;1714886;82;21193;-61
2021/04/28 03:08:02;;;;;;;16.60;9.20;;;;;;;-1.21;72.07;99749.50;1697887;83;21666;-61
2021/04/28 03:10:29;;;;;;;15.78;9.05;;;;;;;-1.23;72.07;99747.52;1722319;82;21596;-61
2021/04/28 03:12:58;;;;;;;17.87;9.60;;;;;;;-1.23;72.13;99746.17;1702992;83;21318;-61
2021/04/28 03:15:27;;;;;;;18.77;9.30;;;;;;;-1.21;72.14;99748.16;1657403;85;21312;-63
2021/04/28 03:17:56;;;;;;;18.15;9.38;;;;;;;-1.18;72.09;99750.94;1709546;83;21177;-62
2021/04/28 03:20:28;;;;;;;18.57;8.78;;;;;;;-1.20;72.51;99754.30;1721498;82;21174;-62
2021/04/28 03:22:56;;;;;;;14.53;8.88;;;;;;;-1.20;73.23;99760.98;1663144;85;21169;-61
2021/04/28 03:25:24;;;;;;;18.02;10.30;;;;;;;-1.21;73.70;99752.67;1706307;83;21745;-62
2021/04/28 03:27:53;;;;;;;17.77;9.63;;;;;;;-1.21;74.10;99763.36;1693586;83;21597;-61
2021/04/28 03:30:22;;;;;;;23.20;10.60;;;;;;;-1.21;74.62;99762.85;1693481;83;21294;-62
2021/04/28 03:32:50;;;;;;;16.60;10.35;;;;;;;-1.17;74.88;99764.09;1714381;83;21200;-61
2021/04/28 03:35:37;;;;;;;20.32;10.63;;;;;;;-1.09;75.18;99773.29;1709866;83;21663;-60
2021/04/28 03:38:23;;;;;;;19.90;9.88;;;;;;;-0.96;75.37;99773.07;1720613;82;21157;-62
2021/04/28 03:40:51;;;;;;;16.82;9.98;;;;;;;-0.78;75.47;99772.84;1705204;83;22077;-62
2021/04/28 03:43:19;;;;;;;20.30;9.80;;;;;;;-0.50;75.48;99774.13;1701054;83;21141;-60
2021/04/28 03:45:48;;;;;;;15.80;9.20;;;;;;;-0.22;75.48;99774.84;1684524;83;21141;-61
2021/04/28 03:48:18;;;;;;;18.55;8.88;;;;;;;0.09;75.26;99774.80;1695016;83;21679;-62
2021/04/28 03:50:45;;;;;;;15.75;8.43;;;;;;;0.50;74.85;99780.30;1649092;87;21152;-61
2021/04/28 03:53:13;;;;;;;13.78;7.20;;;;;;;0.96;73.62;99786.97;1703030;83;21181;-61
2021/04/28 03:55:42;;;;;;;11.73;6.58;;;;;;;1.47;72.11;99783.05;1649400;87;21696;-60
2021/04/28 03:58:10;;;;;;;13.60;7.28;;;;;;;2.02;70.20;99787.97;1711741;83;21144;-61
2021/04/28 04:00:38;;;;;;;12.60;7.30;;;;;;;2.58;68.33;99782.11;1715838;82;21168;-61
2021/04/28 04:03:07;;;;;;;13.68;7.97;;;;;;;3.12;66.63;99792.14;1691083;83;21573;-61
2021/04/28 04:05:43;;;;;;;12.45;7.00;;;;;;;3.74;64.33;99789.70;1773801;79;23089;-61
2021/04/28 04:08:12;;;;;;;12.65;6.58;;;;;;;4.09;62.01;99789.86;1732177;82;21110;-61
2021/04/28 04:10:48;;;;;;;15.43;7.62;;;;;;;4.26;60.79;99786.81;1753529;79;22851;-62
2021/04/28 04:13:16;;;;;;;12.70;6.83;;;;;;;4.08;60.51;99792.77;1730094;82;21287;-62
2021/04/28 04:15:44;;;;;;;14.58;7.60;;;;;;;4.01;60.21;99800.95;1706518;82;21699;-62
2021/04/28 04:18:12;;;;;;;11.83;6.83;;;;;;;4.08;59.45;99798.98;1706963;83;21125;-62
2021/04/28 04:20:41;;;;;;;13.48;7.87;;;;;;;4.23;59.28;99803.45;1692729;83;21607;-62
2021/04/28 04:23:10;;;;;;;14.78;8.83;;;;;;;4.73;59.85;99805.28;1699543;83;21144;-61
2021/04/28 04:25:42;;;;;;;18.73;10.95;;;;;;;5.43;58.63;99810.16;1719393;83;21122;-63
2021/04/28 04:28:12;;;;;;;18.40;11.20;;;;;;;6.10;56.96;99799.69;1692571;83;21604;-61
2021/04/28 04:30:50;;;;;;;17.30;10.80;;;;;;;6.78;55.49;99802.81;1837799;76;22536;-62
2021/04/28 04:33:36;;;;;;;17.92;11.15;;;;;;;7.29;53.82;99807.97;1801213;79;21266;-62
2021/04/28 04:36:21;;;;;;;22.73;13.40;;;;;;;7.83;51.69;99811.66;1767243;80;21111;-63
2021/04/28 04:39:08;;;;;;;29.30;16.95;;;;;;;8.26;50.74;99816.24;1761343;81;21164;-62
2021/04/28 04:41:49;;;;;;;26.95;15.50;;;;;;;8.69;49.48;99814.53;1770959;79;22678;-61
2021/04/28 04:44:22;;;;;;;28.40;15.53;;;;;;;8.91;48.87;99817.46;1725561;82;21752;-62
2021/04/28 04:46:58;;;;;;;23.50;14.68;;;;;;;9.28;47.95;99818.81;1758770;79;22486;-63
2021/04/28 04:49:26;;;;;;;27.93;15.05;;;;;;;9.53;46.91;99823.59;1719120;82;21165;-62
2021/04/28 04:51:54;;;;;;;25.68;16.00;;;;;;;9.83;45.99;99825.67;1713860;82;21314;-62
2021/04/28 04:54:22;;;;;;;25.35;15.50;;;;;;;9.86;44.67;99827.33;1706233;83;21652;-63
2021/04/28 04:56:50;;;;;;;25.80;15.83;;;;;;;9.64;43.75;99828.55;1714577;83;21840;-62
2021/04/28 04:59:17;;;;;;;22.87;14.63;;;;;;;9.33;45.07;99832.45;1708386;84;21190;-61
2021/04/28 05:01:45;;;;;;;18.42;12.60;;;;;;;9.42;44.67;99835.51;1703605;83;21189;-61
2021/04/28 05:04:12;;;;;;;21.20;12.55;;;;;;;9.68;44.34;99839.17;1699694;83;21176;-62
2021/04/28 05:06:40;;;;;;;17.20;10.70;;;;;;;9.65;42.81;99843.78;1700548;83;21212;-63
2021/04/28 05:09:07;;;;;;;17.52;9.75;;;;;;;9.69;43.02;99847.62;1694591;83;21365;-62
2021/04/28 05:11:35;;;;;;;14.00;9.38;;;;;;;9.92;43.26;99845.83;1640335;87;21201;-61
2021/04/28 05:14:03;;;;;;;14.83;9.33;;;;;;;10.18;42.67;99850.34;1677320;85;21208;-61
2021/04/28 05:16:33;;;;;;;12.33;8.50;;;;;;;10.40;43.11;99846.88;1666491;85;21200;-62
2021/04/28 05:19:01;;;;;;;12.82;9.13;;;;;;;10.60;42.44;99846.64;1663108;85;21174;-62
2021/04/28 05:21:28;;;;;;;14.43;8.85;;;;;;;10.74;42.66;99842.31;1665790;85;21312;-62
2021/04/28 05:23:56;;;;;;;19.65;9.80;;;;;;;10.83;42.01;99851.59;1663190;84;21662;-62
2021/04/28 05:26:28;;;;;;;14.43;9.20;;;;;;;10.69;40.55;99857.30;1682043;85;21466;-61
2021/04/28 05:28:55;;;;;;;13.80;9.00;;;;;;;10.47;41.71;99861.05;1660986;85;21315;-60
2021/04/28 05:31:23;;;;;;;16.15;9.43;;;;;;;10.52;40.72;99861.63;1678244;85;21314;-61
2021/04/28 05:33:51;;;;;;;12.50;8.53;;;;;;;10.40;39.20;99867.83;1654936;85;21234;-60
2021/04/28 05:36:20;;;;;;;11.63;8.10;;;;;;;10.28;39.96;99871.31;1650976;87;21751;-60
2021/04/28 05:38:49;;;;;;;8.98;6.08;;;;;;;10.29;39.67;99868.34;1656452;85;21195;-61
2021/04/28 05:41:17;;;;;;;10.50;5.58;;;;;;;10.20;40.13;99874.56;1669462;85;21364;-61
2021/04/28 05:43:44;;;;;;;10.43;5.80;;;;;;;10.31;38.53;99877.04;1667561;85;21179;-61
2021/04/28 05:46:13;;;;;;;10.38;6.53;;;;;;;10.52;39.39;99882.03;1671762;84;21150;-61
2021/04/28 05:48:41;;;;;;;10.63;6.33;;;;;;;10.62;37.27;99877.98;1700258;84;21425;-58
2021/04/28 05:51:09;;;;;;;9.38;6.28;;;;;;;10.50;37.29;99884.19;1636118;86;21180;-59
2021/04/28 05:53:36;;;;;;;7.65;5.20;;;;;;;10.47;37.45;99881.47;1636027;86;21605;-58
2021/04/28 05:56:06;;;;;;;7.37;4.58;;;;;;;10.37;38.39;99886.06;1668023;84;21165;-58
2021/04/28 05:58:33;;;;;;;9.93;4.97;;;;;;;10.59;35.69;99883.14;1664455;84;21200;-59
2021/04/28 06:01:01;;;;;;;7.92;5.12;;;;;;;10.69;35.36;99878.53;1690186;84;21791;-58
2021/04/28 06:03:29;;;;;;;8.68;4.42;;;;;;;11.05;37.16;99893.03;1679618;84;21169;-59
2021/04/28 06:05:56;;;;;;;6.47;3.95;;;;;;;11.42;34.59;99883.22;1663498;86;21217;-59
2021/04/28 06:08:23;;;;;;;7.00;4.10;;;;;;;11.47;34.87;99890.04;1642601;86;21324;-60
2021/04/28 06:10:50;;;;;;;6.33;3.70;;;;;;;11.25;33.64;99883.50;1712390;83;21664;-59
2021/04/28 06:13:19;;;;;;;6.78;3.58;;;;;;;11.10;33.86;99884.84;1712555;84;21320;-60
2021/04/28 06:15:47;;;;;;;5.47;3.67;;;;;;;11.00;33.66;99890.29;1712530;84;21766;-59
2021/04/28 06:18:14;;;;;;;4.33;2.55;;;;;;;10.95;34.45;99893.81;1711642;84;21153;-59
2021/04/28 06:20:42;;;;;;;5.53;3.20;;;;;;;11.19;34.45;99893.31;1704099;82;21168;-60
2021/04/28 06:23:10;;;;;;;7.83;4.05;;;;;;;11.40;34.23;99888.95;1700130;84;21557;-59
2021/04/28 06:25:37;;;;;;;8.53;4.47;;;;;;;11.65;33.74;99883.20;1647706;86;21702;-60
2021/04/28 06:28:05;;;;;;;6.62;4.25;;;;;;;11.81;33.62;99891.65;1691353;84;21185;-61
2021/04/28 06:30:32;;;;;;;6.85;4.40;;;;;;;11.86;33.92;99887.55;1703977;82;21601;-62
2021/04/28 06:32:59;;;;;;;7.05;3.95;;;;;;;11.90;34.07;99888.64;1662191;86;21130;-62
2021/04/28 06:35:26;;;;;;;5.70;3.45;;;;;;;11.76;33.57;99888.38;1692198;83;21313;-61
2021/04/28 06:37:53;;;;;;;6.35;3.67;;;;;;;11.73;34.60;99900.38;1655733;85;21163;-62
2021/04/28 06:40:22;;;;;;;6.95;3.62;;;;;;;11.67;33.81;99896.00;1713181;82;21337;-62
2021/04/28 06:42:50;;;;;;;4.92;3.08;;;;;;;11.51;32.90;99895.22;1665821;84;21120;-61
2021/04/28 06:45:17;;;;;;;5.80;3.17;;;;;;;11.47;34.10;99894.95;1667527;84;21223;-62
2021/04/28 06:47:46;;;;;;;7.22;2.85;;;;;;;11.41;32.83;99889.75;1639169;86;21165;-62
2021/04/28 06:50:14;;;;;;;4.25;1.82;;;;;;;11.30;33.46;99896.31;1684003;85;21327;-62
2021/04/28 06:52:44;;;;;;;3.77;1.90;;;;;;;11.36;32.99;99904.22;1678578;85;21189;-62
2021/04/28 06:55:12;;;;;;;5.87;2.27;;;;;;;11.46;32.79;99897.39;1672571;84;21212;-63
2021/04/28 06:57:42;;;;;;;3.80;2.20;;;;;;;11.63;34.40;99900.37;1671238;86;21205;-61
2021/04/28 07:00:11;;;;;;;5.03;2.65;;;;;;;11.83;34.24;99901.17;1669074;86;21324;-62
2021/04/28 07:02:38;;;;;;;3.62;2.08;;;;;;;11.98;33.44;99898.97;1665302;86;21192;-61
2021/04/28 07:05:08;;;;;;;2.58;1.45;;;;;;;12.18;34.10;99909.02;1655708;86;21176;-63
2021/04/28 07:07:38;;;;;;;3.47;1.70;;;;;;;12.40;32.07;99904.83;1688706;84;21166;-64
2021/04/28 07:10:07;;;;;;;3.62;1.30;;;;;;;12.54;31.19;99910.49;1712279;84;21425;-64
2021/04/28 07:12:35;;;;;;;4.72;1.65;;;;;;;12.67;31.78;99907.72;1706564;84;21525;-64
2021/04/28 07:15:04;;;;;;;4.87;1.67;;;;;;;12.57;30.92;99905.86;1710690;82;21163;-64
2021/04/28 07:17:33;;;;;;;3.47;1.90;;;;;;;12.27;30.88;99906.80;1714858;82;21177;-62
2021/04/28 07:20:04;;;;;;;4.62;1.95;;;;;;;12.12;31.78;99911.47;1712046;82;21197;-61
2021/04/28 07:22:31;;;;;;;4.55;2.10;;;;;;;12.10;32.69;99909.58;1709593;84;21588;-62
2021/04/28 07:24:59;;;;;;;3.92;2.15;;;;;;;12.34;32.74;99914.69;1688623;84;21356;-62
2021/04/28 07:27:27;;;;;;;5.78;2.27;;;;;;;12.69;32.02;99913.70;1712708;84;21625;-62
2021/04/28 07:29:56;;;;;;;4.22;1.87;;;;;;;12.74;30.63;99910.95;1712349;84;21304;-61
2021/04/28 07:32:24;;;;;;;5.33;2.00;;;;;;;12.68;33.12;99909.36;1711094;84;21629;-65
2021/04/28 07:34:51;;;;;;;4.28;2.30;;;;;;;12.79;32.23;99911.73;1712646;84;21296;-61
2021/04/28 07:37:18;;;;;;;3.20;1.77;;;;;;;12.78;31.91;99910.66;1688549;84;21183;-61
2021/04/28 07:39:46;;;;;;;3.25;1.80;;;;;;;12.80;30.51;99908.45;1686394;85;21646;-61
2021/04/28 07:42:13;;;;;;;3.62;1.72;;;;;;;12.86;31.70;99910.05;1692096;84;21180;-62
2021/04/28 07:44:41;;;;;;;2.40;1.50;;;;;;;12.84;30.92;99914.45;1712469;82;21585;-63
2021/04/28 07:47:08;;;;;;;2.70;1.47;;;;;;;12.88;29.32;99901.03;1694836;84;21211;-63
2021/04/28 07:49:36;;;;;;;3.75;1.77;;;;;;;13.11;30.00;99900.36;1697188;83;21314;-65
2021/04/28 07:52:05;;;;;;;3.10;1.72;;;;;;;13.18;29.89;99907.68;1706023;84;21763;-64
2021/04/28 07:54:33;;;;;;;3.60;1.85;;;;;;;13.28;29.54;99902.16;1683988;84;21646;-62
2021/04/28 07:57:02;;;;;;;5.12;2.10;;;;;;;13.25;28.22;99906.02;1636315;87;21169;-62
2021/04/28 07:59:29;;;;;;;2.50;1.52;;;;;;;13.05;29.29;99895.18;1708374;84;21199;-63
2021/04/28 08:01:57;;;;;;;3.08;1.20;;;;;;;12.95;30.50;99898.81;1689428;84;21161;-63
2021/04/28 08:04:25;;;;;;;3.05;1.20;;;;;;;13.02;29.32;99903.41;1621500;87;21185;-62
2021/04/28 08:06:53;;;;;;;3.58;1.17;;;;;;;13.02;29.85;99899.85;1692943;84;21608;-63
2021/04/28 08:09:20;;;;;;;2.70;1.40;;;;;;;13.03;30.06;99901.49;1707144;84;21177;-62
2021/04/28 08:11:47;;;;;;;3.30;1.80;;;;;;;12.96;29.21;99904.00;1699552;84;21158;-62
2021/04/28 08:14:15;;;;;;;3.42;1.60;;;;;;;12.91;29.60;99899.92;1634502;88;21527;-62
2021/04/28 08:16:42;;;;;;;2.70;1.47;;;;;;;12.94;29.71;99906.19;1699102;84;21355;-62
2021/04/28 08:19:10;;;;;;;2.75;1.25;;;;;;;13.09;30.06;99900.34;1683083;85;21172;-61
2021/04/28 08:21:38;;;;;;;4.17;1.55;;;;;;;13.23;29.29;99897.27;1702216;84;21196;-61
2021/04/28 08:24:07;;;;;;;2.45;1.40;;;;;;;13.29;30.13;99903.77;1601612;88;21197;-63
2021/04/28 08:26:34;;;;;;;3.15;1.70;;;;;;;13.37;28.73;99903.17;1699498;84;21138;-61
2021/04/28 08:29:03;;;;;;;2.40;1.40;;;;;;;13.15;28.48;99891.86;1708260;84;21168;-63
2021/04/28 08:31:30;;;;;;;5.10;1.60;;;;;;;13.24;29.62;99886.06;1698805;84;21137;-62
2021/04/28 08:33:58;;;;;;;2.70;1.60;;;;;;;13.32;28.66;99891.47;1688122;84;21327;-63
2021/04/28 08:36:25;;;;;;;2.22;1.20;;;;;;;13.18;27.85;99885.81;1636244;87;21169;-61
2021/04/28 08:38:52;;;;;;;2.10;1.30;;;;;;;12.97;28.44;99895.23;1691359;82;21742;-61
2021/04/28 08:41:20;;;;;;;2.98;1.52;;;;;;;12.98;29.10;99894.14;1581040;88;21732;-61
2021/04/28 08:43:47;;;;;;;4.25;1.90;;;;;;;12.82;29.60;99890.67;1699077;82;21177;-62
2021/04/28 08:46:14;;;;;;;3.85;1.65;;;;;;;12.74;30.56;99896.75;1705246;83;21614;-64
2021/04/28 08:48:42;;;;;;;2.90;1.70;;;;;;;12.76;29.20;99906.02;1702105;82;21197;-64
2021/04/28 08:51:10;;;;;;;2.58;1.45;;;;;;;12.83;28.51;99903.24;1671347;85;21684;-63
2021/04/28 08:53:38;;;;;;;3.10;1.40;;;;;;;12.62;28.35;99898.99;1708511;82;21158;-64
2021/04/28 08:56:07;;;;;;;3.37;1.52;;;;;;;12.60;29.50;99890.82;1716856;83;21494;-64
2021/04/28 08:58:35;;;;;;;4.70;2.00;;;;;;;12.60;28.72;99886.72;1716976;83;21198;-64
2021/04/28 09:01:04;;;;;;;3.33;1.75;;;;;;;12.69;29.48;99893.22;1694683;83;21137;-65
2021/04/28 09:03:41;;;;;;;5.10;2.27;;;;;;;12.77;29.64;99882.53;1714587;82;21540;-65
2021/04/28 09:06:35;;;;;;;4.30;1.50;;;;;;;13.01;30.23;99883.18;1712700;83;21174;-63
2021/04/28 09:09:11;;;;;;;2.70;1.80;;;;;;;12.95;28.01;99876.41;1702255;82;21323;-64
2021/04/28 09:11:48;;;;;;;3.33;1.60;;;;;;;12.79;29.48;99880.31;1704512;83;21636;-65
2021/04/28 09:14:24;;;;;;;4.25;1.80;;;;;;;12.92;28.63;99889.81;1686995;85;21751;-64
2021/04/28 09:17:04;;;;;;;3.35;1.60;;;;;;;13.08;29.97;99882.31;1688329;83;21327;-64
2021/04/28 09:20:17;;;;;;;3.65;1.52;;;;;;;13.34;29.98;99877.77;1690161;83;21750;-65
2021/04/28 09:23:11;;;;;;;2.75;1.50;;;;;;;13.82;28.11;99880.04;1679462;85;21187;-64
2021/04/28 09:25:58;;;;;;;3.00;1.20;;;;;;;13.99;26.99;99880.16;1667862;85;21166;-63
2021/04/28 09:28:34;;;;;;;4.33;1.55;;;;;;;14.06;25.77;99882.00;1662336;84;21217;-62
2021/04/28 09:31:12;;;;;;;4.03;2.00;;;;;;;13.88;26.48;99880.83;1661619;86;21137;-63
2021/04/28 09:33:46;;;;;;;3.22;1.35;;;;;;;13.90;26.61;99882.70;1651908;84;21206;-63
2021/04/28 09:36:14;;;;;;;3.33;1.40;;;;;;;13.96;25.54;99875.52;1698232;83;21121;-63
2021/04/28 09:38:52;;;;;;;2.70;1.40;;;;;;;13.75;26.86;99878.20;1715093;82;21266;-63
2021/04/28 09:41:44;;;;;;;3.20;1.90;;;;;;;13.35;27.58;99871.76;1709653;83;21141;-64
2021/04/28 09:44:28;;;;;;;3.62;1.70;;;;;;;13.27;28.52;99888.77;1637498;85;21235;-63
2021/04/28 09:47:14;;;;;;;4.92;1.80;;;;;;;13.36;28.13;99868.72;1656252;85;21593;-63
2021/04/28 09:49:59;;;;;;;3.50;1.67;;;;;;;13.49;27.75;99869.17;1660137;84;21184;-63
2021/04/28 09:52:36;;;;;;;3.50;1.60;;;;;;;13.51;27.04;99865.04;1651049;85;21157;-64
2021/04/28 09:55:12;;;;;;;2.95;1.55;;;;;;;13.66;27.28;99861.34;1707085;84;21671;-62
2021/04/28 09:57:47;;;;;;;3.20;1.75;;;;;;;13.72;26.28;99867.02;1709151;84;21161;-62
2021/04/28 10:00:23;;;;;;;3.65;1.57;;;;;;;13.57;27.59;99853.52;1681901;84;21188;-61
2021/04/28 10:03:01;;;;;;;3.75;1.82;;;;;;;13.63;26.88;99861.38;1679310;85;21196;-62
2021/04/28 10:05:40;;;;;;;2.72;1.60;;;;;;;13.83;28.45;99859.80;1663699;84;21201;-64
2021/04/28 10:08:16;;;;;;;3.67;1.80;;;;;;;13.87;27.65;99857.29;1658593;86;21676;-62
2021/04/28 10:10:44;;;;;;;4.28;1.30;;;;;;;13.80;26.92;99848.06;1658481;86;21336;-61
2021/04/28 10:13:13;;;;;;;2.72;1.55;;;;;;;13.93;27.45;99845.99;1721162;82;21879;-61
2021/04/28 10:15:40;;;;;;;5.00;3.08;;;;;;;14.15;28.14;99844.65;1709934;82;21310;-60
2021/04/28 10:18:09;;;;;;;4.83;2.47;;;;;;;14.21;26.48;99843.47;1683645;83;21156;-61
2021/04/28 10:20:40;;;;;;;3.98;1.70;;;;;;;14.27;27.51;99843.69;1695276;83;21333;-61
2021/04/28 10:23:10;;;;;;;3.22;1.50;;;;;;;14.36;27.09;99843.31;1712998;83;21125;-61
2021/04/28 10:25:38;;;;;;;4.28;1.65;;;;;;;14.49;27.31;99847.27;1667029;84;21715;-61
2021/04/28 10:28:08;;;;;;;3.87;1.50;;;;;;;14.60;25.96;99843.25;1649478;86;21169;-61
2021/04/28 10:30:47;;;;;;;3.65;1.57;;;;;;;14.70;25.88;99842.55;1662093;86;21197;-61
2021/04/28 10:33:24;;;;;;;9.93;4.67;;;;;;;14.73;25.73;99830.21;1712136;82;21121;-60
2021/04/28 10:35:52;;;;;;;5.45;2.15;;;;;;;14.74;25.66;99834.55;1715996;83;21189;-61
2021/04/28 10:38:24;;;;;;;9.38;4.10;;;;;;;14.68;24.10;99828.90;1711812;83;21727;-61
2021/04/28 10:40:51;;;;;;;2.83;1.50;;;;;;;14.49;24.87;99822.62;1687712;83;21276;-60
2021/04/28 10:43:20;;;;;;;4.15;1.95;;;;;;;14.30;24.78;99821.19;1714545;83;21172;-60
2021/04/28 10:45:48;;;;;;;3.58;1.40;;;;;;;14.44;24.82;99826.23;1704228;83;21302;-61
2021/04/28 10:48:21;;;;;;;3.37;1.82;;;;;;;14.48;25.42;99819.06;1714051;83;21271;-61
2021/04/28 10:50:48;;;;;;;2.80;1.32;;;;;;;14.61;24.79;99815.58;1701741;83;21640;-61
2021/04/28 10:53:27;;;;;;;51.70;22.37;;;;;;;14.64;24.55;99814.16;1715434;83;21164;-60
2021/04/28 10:56:09;;;;;;;4.10;1.50;;;;;;;14.42;27.76;99815.56;1722799;83;21165;-60
2021/04/28 10:58:38;;;;;;;2.22;1.40;;;;;;;14.33;26.89;99802.25;1746679;81;21161;-59
2021/04/28 11:01:20;;;;;;;2.00;1.30;;;;;;;14.39;27.37;99822.18;1744478;82;21187;-61
2021/04/28 11:03:53;;;;;;;4.80;1.47;;;;;;;14.58;27.05;99811.25;1720200;83;21221;-63
2021/04/28 11:06:27;;;;;;;3.83;1.62;;;;;;;14.61;24.93;99806.53;1703179;83;21647;-60
2021/04/28 11:09:05;;;;;;;3.30;1.50;;;;;;;14.67;26.09;99806.16;1693780;85;21234;-61
2021/04/28 11:11:44;;;;;;;2.67;1.30;;;;;;;14.75;27.12;99806.05;1722665;83;21137;-62
2021/04/28 11:14:21;;;;;;;7.92;2.70;;;;;;;14.85;25.56;99802.59;1722710;83;21531;-61
2021/04/28 11:17:19;;;;;;;2.33;1.30;;;;;;;14.92;25.90;99808.52;1709057;83;21592;-61
2021/04/28 11:19:51;;;;;;;3.90;1.60;;;;;;;14.97;25.22;99799.41;1719223;82;21203;-62
2021/04/28 11:22:27;;;;;;;2.15;1.17;;;;;;;14.89;25.28;99798.16;1717061;83;21581;-62
2021/04/28 11:25:09;;;;;;;7.33;3.60;;;;;;;14.82;24.24;99794.16;1717424;83;21169;-61
2021/04/28 11:28:01;;;;;;;5.55;2.10;;;;;;;14.71;25.92;99800.35;1711754;83;21318;-62
2021/04/28 11:30:49;;;;;;;2.27;1.30;;;;;;;14.69;26.30;99793.55;1722620;83;21744;-63
2021/04/28 11:33:31;;;;;;;;;;;;;;;14.66;25.79;99789.48;1699443;83;21177;-63
2021/04/28 11:36:06;;;;;;;2.30;1.40;;;;;;;14.65;24.74;99793.33;1720519;83;20184;-62
2021/04/28 11:38:40;;;;;;;2.77;1.35;;;;;;;14.57;25.96;99800.02;1701094;83;21187;-62
2021/04/28 11:41:21;;;;;;;3.20;1.42;;;;;;;14.68;25.61;99792.73;1719037;83;21124;-62
2021/04/28 11:43:57;;;;;;;3.62;1.60;;;;;;;14.64;24.63;99779.91;1721873;83;21206;-61
2021/04/28 11:46:33;;;;;;;3.35;1.52;;;;;;;14.60;25.87;99787.09;1722929;83;21693;-61
2021/04/28 11:49:02;;;;;;;2.62;1.32;;;;;;;14.72;26.13;99788.29;1722709;83;21180;-62